Time;durP1;ratioP1;P1;durP2;ratioP2;P2;SDS_P1;SDS_P2;PMS_P1;PMS_P2;Temp;Humidity;BMP_temperature;BMP_pressure;BME280_temperature;BME280_humidity;BME280_pressure;Samples;Min_cycle;Max_cycle;Signal;HPM_P1;HPM_P2
2022/12/30 00:01:42;;;;;;;;;;;;;;;20.95;27.67;98667.22;5057936;28;893;-79
2022/12/30 00:04:07;;;;;;;;;;;;;;;21.22;27.45;98670.06;5057421;28;1035;-79
2022/12/30 00:06:33;;;;;;;;;;;;;;;21.12;27.20;98671.81;5057970;28;903;-79
2022/12/30 00:08:58;;;;;;;;;;;;;;;20.86;27.89;98678.22;5058038;28;947;-79
2022/12/30 00:11:28;;;;;;;;;;;;;;;20.80;27.84;98669.41;5058062;28;1008;-79
2022/12/30 00:33:29;;;;;;;;;;;;;;;21.16;27.52;98666.91;5056689;28;1894;-79
2022/12/30 00:35:55;;;;;;;;;;;;;;;21.38;27.21;98663.78;5055922;28;1000;-79
2022/12/30 00:38:21;;;;;;;;;;;;;;;21.05;27.43;98669.09;5055347;28;965;-78
2022/12/30 00:43:30;;;;;;;;;;;;;;;20.53;28.42;98658.84;5056663;28;993;-78
2022/12/30 00:45:56;;;;;;;;;;;;;;;20.83;28.09;98662.09;5057701;28;982;-79
2022/12/30 00:56:33;;;;;;;;;;;;;;;20.94;27.60;98662.78;5057187;28;896;-79
2022/12/30 00:58:58;;;;;;;;;;;;;;;20.54;28.39;98668.91;5057052;28;994;-79
2022/12/30 01:01:24;;;;;;;;;;;;;;;20.89;27.84;98666.09;5058046;28;869;-79
2022/12/30 01:03:49;;;;;;;;;;;;;;;21.13;27.33;98670.56;5056650;28;951;-79
2022/12/30 01:06:15;;;;;;;;;;;;;;;21.38;27.06;98669.44;5057121;28;1050;-79
2022/12/30 01:08:40;;;;;;;;;;;;;;;21.22;27.05;98673.69;5056207;28;1174;-79
2022/12/30 01:11:06;;;;;;;;;;;;;;;20.74;28.05;98671.91;5057958;28;1116;-79
2022/12/30 01:13:32;;;;;;;;;;;;;;;20.69;28.31;98672.38;5056195;28;1894;-78
2022/12/30 01:15:57;;;;;;;;;;;;;;;20.91;27.89;98669.28;5038957;28;1025;-79
2022/12/30 01:18:23;;;;;;;;;;;;;;;21.23;27.19;98669.63;5056312;28;901;-79
2022/12/30 01:20:48;;;;;;;;;;;;;;;21.31;27.15;98664.72;5038271;28;986;-79
2022/12/30 01:23:14;;;;;;;;;;;;;;;21.28;27.12;98654.19;5056467;28;1003;-79
2022/12/30 01:25:40;;;;;;;;;;;;;;;20.90;27.71;98656.38;5057090;28;1276;-79
2022/12/30 01:28:05;;;;;;;;;;;;;;;20.67;28.20;98659.88;5056505;28;1145;-79
2022/12/30 01:30:30;;;;;;;;;;;;;;;20.95;27.99;98659.50;5057208;28;937;-79
2022/12/30 01:32:56;;;;;;;;;;;;;;;21.02;27.57;98653.75;5055590;28;1115;-79
2022/12/30 01:35:22;;;;;;;;;;;;;;;21.24;27.31;98653.44;5056813;28;923;-79
2022/12/30 01:37:47;;;;;;;;;;;;;;;21.23;27.26;98646.97;5056623;28;1042;-79
2022/12/30 01:40:12;;;;;;;;;;;;;;;20.92;27.97;98648.25;5056654;28;1025;-79
2022/12/30 01:42:39;;;;;;;;;;;;;;;20.72;27.88;98646.06;5057178;28;1144;-79
2022/12/30 01:45:04;;;;;;;;;;;;;;;20.46;28.51;98644.78;5056888;28;1056;-79
2022/12/30 01:47:48;;;;;;;;;;;;;;;20.96;27.76;98643.34;5058072;28;895;-79
2022/12/30 01:50:22;;;;;;;;;;;;;;;21.28;27.16;98645.69;5060748;28;926;-79
2022/12/30 01:52:52;;;;;;;;;;;;;;;21.20;27.32;98642.19;5059268;28;989;-79
2022/12/30 01:55:19;;;;;;;;;;;;;;;21.34;27.24;98652.50;5059263;28;1971;-79
2022/12/30 01:57:44;;;;;;;;;;;;;;;21.13;27.31;98647.94;5041366;28;1305;-78
2022/12/30 02:00:10;;;;;;;;;;;;;;;20.70;27.94;98642.88;5060710;28;1013;-79
2022/12/30 02:02:40;;;;;;;;;;;;;;;20.72;28.07;98634.75;5060135;28;997;-79
2022/12/30 02:05:05;;;;;;;;;;;;;;;21.12;27.29;98629.38;5059923;28;904;-79
2022/12/30 02:07:35;;;;;;;;;;;;;;;21.26;27.20;98639.69;5059150;28;916;-79
2022/12/30 02:10:00;;;;;;;;;;;;;;;21.27;27.40;98632.78;5059682;28;951;-79
2022/12/30 02:12:26;;;;;;;;;;;;;;;21.38;26.87;98626.97;5060250;28;959;-78
2022/12/30 02:14:51;;;;;;;;;;;;;;;21.04;27.44;98622.22;5040692;28;1914;-79
2022/12/30 02:17:36;;;;;;;;;;;;;;;20.73;27.94;98613.75;5059084;28;981;-79
2022/12/30 02:20:19;;;;;;;;;;;;;;;20.63;28.20;98613.91;5059289;28;1174;-79
2022/12/30 02:23:08;;;;;;;;;;;;;;;21.10;27.43;98619.72;5058325;28;882;-79
2022/12/30 02:25:33;;;;;;;;;;;;;;;21.14;27.59;98615.59;5059780;28;1859;-79
2022/12/30 02:28:10;;;;;;;;;;;;;;;21.34;27.29;98615.72;5059702;28;1009;-79
2022/12/30 02:30:36;;;;;;;;;;;;;;;21.08;27.29;98614.47;5058650;28;909;-79
2022/12/30 02:33:08;;;;;;;;;;;;;;;20.68;28.00;98617.06;5059733;28;1906;-79
2022/12/30 02:35:43;;;;;;;;;;;;;;;20.68;28.06;98611.41;5042169;28;1012;-79
2022/12/30 02:38:27;;;;;;;;;;;;;;;21.03;27.66;98609.28;5057716;28;983;-79
2022/12/30 02:46:25;;;;;;;;;;;;;;;21.12;27.43;98618.03;5059573;28;966;-79
2022/12/30 02:48:50;;;;;;;;;;;;;;;20.60;28.19;98609.88;5057788;28;947;-79
2022/12/30 02:54:00;;;;;;;;;;;;;;;21.01;27.45;98608.91;5057812;28;1894;-79
2022/12/30 02:56:25;;;;;;;;;;;;;;;21.14;27.46;98607.13;5059488;28;1106;-78
2022/12/30 03:03:56;;;;;;;;;;;;;;;21.23;27.21;98615.84;5058320;28;1150;-79
2022/12/30 03:04:25;;;;;;;;;;;;;;;20.59;28.19;98596.97;5058548;28;978;-79
2022/12/30 03:06:57;;;;;;;;;;;;;;;20.60;28.36;98604.22;5059223;28;984;-79
2022/12/30 03:09:28;;;;;;;;;;;;;;;20.97;27.64;98611.78;5058493;28;918;-79
2022/12/30 03:12:03;;;;;;;;;;;;;;;21.25;27.32;98616.25;5059032;28;921;-78
2022/12/30 03:14:58;;;;;;;;;;;;;;;21.08;27.53;98608.81;5058189;28;1969;-79
2022/12/30 03:17:25;;;;;;;;;;;;;;;21.20;27.18;98599.75;5036366;28;1084;-79
2022/12/30 03:19:51;;;;;;;;;;;;;;;20.87;27.89;98609.13;5019579;28;996;-79
2022/12/30 03:27:45;;;;;;;;;;;;;;;21.28;27.00;98621.03;5022286;28;1105;-79
2022/12/30 03:30:11;;;;;;;;;;;;;;;21.19;27.40;98617.97;5019672;28;980;-79
2022/12/30 03:32:36;;;;;;;;;;;;;;;21.22;27.43;98625.56;5020014;28;1056;-79
2022/12/30 03:35:02;;;;;;;;;;;;;;;20.95;27.60;98613.47;5019537;28;1907;-79
2022/12/30 03:37:31;;;;;;;;;;;;;;;20.84;27.86;98612.81;5020059;28;954;-79
2022/12/30 03:40:15;;;;;;;;;;;;;;;20.54;28.25;98618.03;5019881;28;916;-79
2022/12/30 03:42:40;;;;;;;;;;;;;;;21.06;27.41;98614.91;5036045;28;919;-79
2022/12/30 03:45:06;;;;;;;;;;;;;;;21.07;27.33;98622.16;5018748;28;964;-79
2022/12/30 03:47:31;;;;;;;;;;;;;;;21.35;26.92;98613.69;5019590;28;1044;-79
2022/12/30 03:49:57;;;;;;;;;;;;;;;21.36;27.03;98615.31;5035734;28;1027;-79
2022/12/30 03:52:22;;;;;;;;;;;;;;;21.03;27.46;98614.94;5019815;28;968;-79
2022/12/30 03:54:48;;;;;;;;;;;;;;;20.62;28.27;98615.91;5056007;28;1906;-79
2022/12/30 03:57:14;;;;;;;;;;;;;;;20.57;28.25;98616.38;5057006;28;938;-79
2022/12/30 03:59:39;;;;;;;;;;;;;;;21.02;27.67;98619.00;5056468;28;898;-79
2022/12/30 04:02:05;;;;;;;;;;;;;;;21.39;27.19;98625.75;5056625;28;928;-79
2022/12/30 04:04:30;;;;;;;;;;;;;;;21.41;26.88;98623.31;5056164;28;961;-79
2022/12/30 04:06:56;;;;;;;;;;;;;;;20.86;27.44;98621.66;5057342;28;912;-79
2022/12/30 04:09:21;;;;;;;;;;;;;;;20.70;28.13;98620.25;5057924;28;921;-79
2022/12/30 04:11:47;;;;;;;;;;;;;;;20.59;28.08;98627.28;5056949;28;906;-79
2022/12/30 04:14:12;;;;;;;;;;;;;;;21.11;27.42;98626.97;5057218;28;1973;-79
2022/12/30 04:16:37;;;;;;;;;;;;;;;21.24;27.25;98637.28;5058102;28;943;-79
2022/12/30 04:19:03;;;;;;;;;;;;;;;21.28;26.90;98635.19;5039662;28;879;-79
2022/12/30 04:21:28;;;;;;;;;;;;;;;21.30;27.03;98644.09;5019176;28;1188;-79
2022/12/30 04:23:54;;;;;;;;;;;;;;;21.10;27.21;98631.81;5035101;28;986;-79
2022/12/30 04:26:19;;;;;;;;;;;;;;;20.62;28.20;98630.03;5002269;28;1302;-79
2022/12/30 04:28:44;;;;;;;;;;;;;;;20.94;27.82;98628.84;5034732;28;1042;-79
2022/12/30 04:31:10;;;;;;;;;;;;;;;21.07;27.61;98627.00;5035569;28;999;-79
2022/12/30 04:33:35;;;;;;;;;;;;;;;21.19;27.41;98636.94;5034857;28;1878;-79
2022/12/30 04:36:01;;;;;;;;;;;;;;;21.26;27.18;98640.47;5019372;28;1137;-79
2022/12/30 04:38:26;;;;;;;;;;;;;;;20.99;27.46;98636.84;5018326;28;1865;-79
2022/12/30 04:40:52;;;;;;;;;;;;;;;20.95;27.35;98641.75;5035875;28;989;-79
2022/12/30 04:43:17;;;;;;;;;;;;;;;20.69;27.86;98643.31;5017924;28;1078;-79
2022/12/30 04:45:43;;;;;;;;;;;;;;;21.20;27.11;98642.19;5018660;28;1641;-79
2022/12/30 04:48:08;;;;;;;;;;;;;;;21.29;26.89;98645.25;5018651;28;1028;-79
2022/12/30 04:50:34;;;;;;;;;;;;;;;21.38;26.91;98643.97;5035121;28;892;-78
2022/12/30 04:52:59;;;;;;;;;;;;;;;20.97;27.37;98644.94;5050860;28;878;-79
2022/12/30 04:55:25;;;;;;;;;;;;;;;20.75;27.93;98650.88;5057094;28;1981;-79
2022/12/30 04:57:50;;;;;;;;;;;;;;;20.67;27.83;98637.25;5055662;28;894;-79
2022/12/30 05:00:15;;;;;;;;;;;;;;;21.16;27.45;98649.94;5057032;28;1193;-79
2022/12/30 05:02:41;;;;;;;;;;;;;;;21.28;27.00;98648.53;5057388;28;895;-79
2022/12/30 05:05:06;;;;;;;;;;;;;;;21.32;26.99;98644.44;5057060;28;911;-79
2022/12/30 05:07:32;;;;;;;;;;;;;;;21.16;27.11;98646.28;5039402;28;953;-79
2022/12/30 05:09:57;;;;;;;;;;;;;;;20.69;27.70;98644.09;5056695;28;901;-79
2022/12/30 05:12:23;;;;;;;;;;;;;;;20.74;27.74;98642.84;5057382;28;1288;-79
2022/12/30 05:14:48;;;;;;;;;;;;;;;20.92;27.56;98645.41;5056561;28;1981;-79
2022/12/30 05:17:14;;;;;;;;;;;;;;;21.12;27.49;98645.53;5055813;28;1259;-79
2022/12/30 05:19:39;;;;;;;;;;;;;;;21.18;27.07;98647.47;5056546;28;1120;-79
2022/12/30 05:22:05;;;;;;;;;;;;;;;21.42;26.60;98645.53;5056983;28;896;-79
2022/12/30 05:27:14;;;;;;;;;;;;;;;20.58;28.03;98646.25;5061041;28;869;-79
2022/12/30 05:29:40;;;;;;;;;;;;;;;20.81;27.56;98643.53;5059220;28;887;-79
2022/12/30 05:32:05;;;;;;;;;;;;;;;21.33;26.93;98646.06;5038438;28;1290;-79
2022/12/30 05:34:31;;;;;;;;;;;;;;;21.35;26.88;98647.66;5038051;28;1985;-79
2022/12/30 05:36:56;;;;;;;;;;;;;;;21.27;26.79;98659.06;5021581;28;936;-79
2022/12/30 05:39:22;;;;;;;;;;;;;;;20.91;27.06;98652.31;5038185;28;975;-79
2022/12/30 05:41:47;;;;;;;;;;;;;;;20.85;27.69;98651.97;5021942;28;1088;-79
2022/12/30 05:44:12;;;;;;;;;;;;;;;20.52;28.02;98653.59;5038246;28;892;-79
2022/12/30 05:46:38;;;;;;;;;;;;;;;20.83;27.44;98648.78;5021576;28;1031;-79
2022/12/30 05:49:03;;;;;;;;;;;;;;;21.03;27.26;98660.22;5020986;28;978;-79
2022/12/30 05:51:29;;;;;;;;;;;;;;;21.23;27.05;98652.63;5038407;28;955;-79
2022/12/30 05:53:54;;;;;;;;;;;;;;;21.43;26.57;98649.16;5021300;28;1903;-79
2022/12/30 05:56:20;;;;;;;;;;;;;;;21.49;26.60;98664.41;5021686;28;988;-79
2022/12/30 05:58:45;;;;;;;;;;;;;;;21.02;26.97;98662.25;5037413;28;1044;-78
2022/12/30 06:01:11;;;;;;;;;;;;;;;20.84;27.51;98658.88;5022042;28;901;-79
2022/12/30 06:03:36;;;;;;;;;;;;;;;20.57;27.70;98667.25;5035306;28;952;-78
2022/12/30 06:06:03;;;;;;;;;;;;;;;20.98;27.31;98663.50;5060621;28;933;-79
2022/12/30 06:08:28;;;;;;;;;;;;;;;21.10;27.06;98660.13;5036874;28;916;-79
2022/12/30 06:10:54;;;;;;;;;;;;;;;21.43;26.64;98654.81;5021675;28;1121;-79
2022/12/30 06:13:19;;;;;;;;;;;;;;;21.51;26.47;98656.31;5037319;28;1972;-80
2022/12/30 06:15:45;;;;;;;;;;;;;;;21.02;27.05;98658.59;5038414;28;1238;-80
2022/12/30 06:18:10;;;;;;;;;;;;;;;20.92;27.15;98662.38;5020755;28;1088;-80
2022/12/30 06:20:36;;;;;;;;;;;;;;;20.53;28.08;98667.31;5037764;28;1065;-79
2022/12/30 06:23:01;;;;;;;;;;;;;;;21.11;27.28;98667.38;5037524;28;1069;-80
2022/12/30 06:25:27;;;;;;;;;;;;;;;21.22;26.99;98661.56;5038043;28;962;-79
2022/12/30 06:27:52;;;;;;;;;;;;;;;21.32;26.72;98667.09;5037397;28;946;-80
2022/12/30 06:30:17;;;;;;;;;;;;;;;21.01;27.18;98669.13;5037398;28;1114;-79
2022/12/30 06:32:43;;;;;;;;;;;;;;;20.89;27.48;98672.53;5037686;28;1536;-79
2022/12/30 06:35:09;;;;;;;;;;;;;;;20.54;27.77;98671.75;5036410;28;1991;-80
2022/12/30 06:37:34;;;;;;;;;;;;;;;20.77;27.54;98676.69;5037890;28;1023;-79
2022/12/30 06:40:00;;;;;;;;;;;;;;;20.95;27.07;98670.03;5052895;28;981;-79
2022/12/30 06:42:25;;;;;;;;;;;;;;;21.24;26.81;98664.75;5059821;28;995;-79
2022/12/30 06:44:50;;;;;;;;;;;;;;;21.43;26.61;98668.97;5059277;28;908;-79
2022/12/30 06:47:16;;;;;;;;;;;;;;;21.19;26.61;98657.56;5058060;28;1009;-80
2022/12/30 06:49:41;;;;;;;;;;;;;;;20.97;27.08;98674.03;5040363;28;964;-79
2022/12/30 06:52:07;;;;;;;;;;;;;;;20.95;27.35;98670.03;5059520;28;924;-79
2022/12/30 06:54:32;;;;;;;;;;;;;;;20.99;27.00;98671.59;5040339;28;1976;-79
2022/12/30 06:56:58;;;;;;;;;;;;;;;21.20;26.91;98681.81;5059032;28;944;-79
2022/12/30 06:59:23;;;;;;;;;;;;;;;21.31;26.94;98674.00;5059240;28;944;-80
2022/12/30 07:01:49;;;;;;;;;;;;;;;21.19;26.98;98677.38;5059359;28;1007;-80
2022/12/30 07:04:14;;;;;;;;;;;;;;;20.86;27.28;98681.84;5058815;28;970;-80
2022/12/30 07:06:39;;;;;;;;;;;;;;;20.91;27.16;98675.72;5059468;28;905;-80
2022/12/30 07:09:05;;;;;;;;;;;;;;;20.90;27.41;98676.16;5058817;28;887;-79
2022/12/30 07:11:30;;;;;;;;;;;;;;;20.91;27.48;98678.56;5059130;28;1129;-79
2022/12/30 07:13:56;;;;;;;;;;;;;;;21.30;26.64;98686.56;5058496;28;1909;-80
2022/12/30 07:16:21;;;;;;;;;;;;;;;21.36;26.60;98688.91;5059424;28;1055;-79
2022/12/30 07:18:47;;;;;;;;;;;;;;;21.03;26.97;98685.66;5058379;28;1542;-79
2022/12/30 07:21:12;;;;;;;;;;;;;;;20.63;27.59;98693.88;5057385;28;957;-80
2022/12/30 07:23:37;;;;;;;;;;;;;;;20.70;27.50;98690.94;5058308;28;1225;-80
2022/12/30 07:26:03;;;;;;;;;;;;;;;21.00;27.58;98684.50;5059178;28;913;-79
2022/12/30 07:28:28;;;;;;;;;;;;;;;21.08;27.29;98690.84;5058243;28;1181;-80
2022/12/30 07:30:54;;;;;;;;;;;;;;;21.33;26.79;98688.50;5059544;28;998;-79
2022/12/30 07:33:19;;;;;;;;;;;;;;;21.37;26.72;98696.16;5058434;28;1967;-79
2022/12/30 07:35:45;;;;;;;;;;;;;;;20.91;27.24;98694.72;5058295;28;984;-79
2022/12/30 07:38:10;;;;;;;;;;;;;;;20.68;27.75;98690.56;5058169;28;1019;-79
2022/12/30 07:40:36;;;;;;;;;;;;;;;20.97;27.41;98688.16;5058433;28;1052;-79
2022/12/30 07:43:02;;;;;;;;;;;;;;;21.22;27.04;98696.31;5058470;28;965;-80
2022/12/30 07:45:28;;;;;;;;;;;;;;;21.25;26.80;98689.81;5057883;28;899;-80
2022/12/30 07:47:53;;;;;;;;;;;;;;;21.26;26.75;98697.09;5058682;28;868;-79
2022/12/30 07:50:19;;;;;;;;;;;;;;;21.22;26.91;98702.00;5058045;28;913;-79
2022/12/30 07:52:44;;;;;;;;;;;;;;;20.81;27.39;98700.09;5057209;28;1011;-79
2022/12/30 07:55:10;;;;;;;;;;;;;;;20.73;27.91;98715.56;5057856;28;1914;-79
2022/12/30 07:57:35;;;;;;;;;;;;;;;20.96;27.44;98714.06;5057111;28;962;-79
2022/12/30 08:00:01;;;;;;;;;;;;;;;21.17;27.19;98715.81;5057587;28;1061;-79
2022/12/30 08:02:26;;;;;;;;;;;;;;;21.19;27.16;98722.66;5057922;28;977;-79
2022/12/30 08:04:52;;;;;;;;;;;;;;;21.13;27.04;98715.84;5057831;28;909;-80
2022/12/30 08:07:18;;;;;;;;;;;;;;;21.01;27.32;98719.25;5058313;28;911;-80
2022/12/30 08:09:43;;;;;;;;;;;;;;;20.56;27.95;98722.19;5056157;28;965;-79
2022/12/30 08:12:09;;;;;;;;;;;;;;;20.95;27.92;98718.13;5058153;28;988;-79
2022/12/30 08:14:34;;;;;;;;;;;;;;;21.10;27.43;98722.38;5057321;28;1910;-79
2022/12/30 08:17:00;;;;;;;;;;;;;;;21.20;27.10;98720.63;5057923;28;1039;-80
2022/12/30 08:19:26;;;;;;;;;;;;;;;21.29;27.14;98718.84;5038394;28;981;-80
2022/12/30 08:21:52;;;;;;;;;;;;;;;20.90;27.56;98719.41;5057659;28;877;-80
2022/12/30 08:24:17;;;;;;;;;;;;;;;20.79;27.66;98713.88;5038497;28;1006;-79
2022/12/30 08:26:43;;;;;;;;;;;;;;;20.65;28.06;98714.03;5057682;28;963;-79
2022/12/30 08:29:08;;;;;;;;;;;;;;;21.19;27.14;98719.00;5057371;28;1010;-79
2022/12/30 08:31:33;;;;;;;;;;;;;;;21.23;27.31;98720.56;5058071;28;865;-80
2022/12/30 08:33:59;;;;;;;;;;;;;;;21.24;27.29;98716.53;5056722;28;1979;-79
2022/12/30 08:36:25;;;;;;;;;;;;;;;21.16;27.14;98720.69;5057320;28;900;-79
2022/12/30 08:38:51;;;;;;;;;;;;;;;20.98;27.45;98728.56;5056800;28;821;-78
2022/12/30 08:41:18;;;;;;;;;;;;;;;21.05;27.45;98722.84;5057603;28;904;-78
2022/12/30 08:43:44;;;;;;;;;;;;;;;21.23;27.43;98714.91;5056979;28;848;-79
2022/12/30 08:46:09;;;;;;;;;;;;;;;21.18;27.21;98721.03;5057600;28;877;-78
2022/12/30 08:48:34;;;;;;;;;;;;;;;21.14;27.41;98717.47;5056874;28;952;-79
2022/12/30 08:51:00;;;;;;;;;;;;;;;20.84;27.67;98714.63;5058118;28;1454;-78
2022/12/30 08:53:25;;;;;;;;;;;;;;;20.75;28.03;98717.97;5037580;28;1893;-78
2022/12/30 08:55:58;;;;;;;;;;;;;;;20.93;27.76;98720.56;5057554;28;994;-78
2022/12/30 08:58:23;;;;;;;;;;;;;;;21.05;27.64;98722.84;5056377;28;868;-79
2022/12/30 09:00:49;;;;;;;;;;;;;;;21.16;27.52;98715.00;5057491;28;889;-80
2022/12/30 09:03:14;;;;;;;;;;;;;;;21.26;27.21;98713.28;5057003;28;974;-79
2022/12/30 09:05:40;;;;;;;;;;;;;;;20.99;27.68;98704.75;5057203;28;980;-80
2022/12/30 09:08:05;;;;;;;;;;;;;;;20.81;27.75;98710.59;5057442;28;873;-80
2022/12/30 09:10:30;;;;;;;;;;;;;;;20.67;28.10;98705.13;5057178;28;1169;-80
2022/12/30 09:12:56;;;;;;;;;;;;;;;21.12;27.53;98705.75;5057367;28;927;-80
2022/12/30 09:15:21;;;;;;;;;;;;;;;21.20;27.76;98698.78;5057298;28;1914;-80
2022/12/30 09:17:47;;;;;;;;;;;;;;;21.39;27.13;98693.69;5056835;28;909;-80
2022/12/30 09:20:12;;;;;;;;;;;;;;;21.12;27.73;98697.28;5056713;28;861;-80
2022/12/30 09:22:38;;;;;;;;;;;;;;;20.70;28.03;98693.78;5057822;28;836;-79
2022/12/30 09:25:03;;;;;;;;;;;;;;;20.73;28.30;98692.94;5056661;28;1133;-79
2022/12/30 09:27:29;;;;;;;;;;;;;;;20.92;28.08;98685.00;5057593;28;895;-80
2022/12/30 09:29:54;;;;;;;;;;;;;;;21.19;27.63;98688.72;5056916;28;955;-80
2022/12/30 09:32:20;;;;;;;;;;;;;;;21.16;27.53;98689.53;5057385;28;1162;-80
2022/12/30 09:34:45;;;;;;;;;;;;;;;21.11;27.74;98687.19;5056789;28;1979;-79
2022/12/30 09:37:10;;;;;;;;;;;;;;;21.03;27.86;98683.63;5072704;28;898;-79
2022/12/30 09:39:36;;;;;;;;;;;;;;;20.85;27.92;98682.28;5056649;28;863;-79
2022/12/30 09:44:49;;;;;;;;;;;;;;;21.10;27.69;98674.28;5069943;28;1044;-80
2022/12/30 09:47:27;;;;;;;;;;;;;;;21.16;27.79;98674.59;5072794;28;972;-80
2022/12/30 09:49:57;;;;;;;;;;;;;;;21.13;27.76;98667.75;5056607;28;916;-80
2022/12/30 09:52:23;;;;;;;;;;;;;;;20.92;27.93;98665.22;5072325;28;1127;-80
2022/12/30 09:54:59;;;;;;;;;;;;;;;20.78;28.21;98667.03;5055392;28;1984;-80
2022/12/30 09:57:31;;;;;;;;;;;;;;;20.97;28.27;98659.88;5072553;28;915;-80
2022/12/30 09:59:57;;;;;;;;;;;;;;;21.41;27.31;98662.94;5056480;28;951;-80
2022/12/30 10:02:24;;;;;;;;;;;;;;;21.24;27.69;98657.09;5072240;28;879;-80
2022/12/30 10:04:50;;;;;;;;;;;;;;;20.87;28.12;98657.19;5056490;28;962;-80
2022/12/30 10:07:21;;;;;;;;;;;;;;;20.81;28.50;98654.03;5072323;28;936;-80
2022/12/30 10:10:06;;;;;;;;;;;;;;;20.54;28.57;98653.97;5058567;28;939;-80
2022/12/30 10:12:39;;;;;;;;;;;;;;;20.87;28.39;98649.50;5059925;28;906;-80
2022/12/30 10:15:11;;;;;;;;;;;;;;;21.06;28.00;98642.38;5069354;28;1917;-80
2022/12/30 10:17:39;;;;;;;;;;;;;;;21.17;27.82;98642.22;5040372;28;903;-80
2022/12/30 10:20:17;;;;;;;;;;;;;;;21.17;27.78;98642.22;5039625;28;840;-80
2022/12/30 10:22:50;;;;;;;;;;;;;;;20.96;28.25;98649.78;5040009;28;851;-79
2022/12/30 10:25:22;;;;;;;;;;;;;;;20.76;28.43;98652.47;5055299;28;830;-80
2022/12/30 10:27:48;;;;;;;;;;;;;;;20.79;28.49;98643.16;5055315;28;976;-80
2022/12/30 10:30:15;;;;;;;;;;;;;;;20.93;28.38;98649.84;5055316;28;925;-79
2022/12/30 10:32:40;;;;;;;;;;;;;;;21.21;27.93;98640.97;5071194;28;1195;-80
2022/12/30 10:35:12;;;;;;;;;;;;;;;21.23;27.92;98641.31;5039475;28;1985;-80
2022/12/30 10:37:38;;;;;;;;;;;;;;;21.09;27.84;98647.22;5054888;28;956;-80
2022/12/30 10:40:12;;;;;;;;;;;;;;;20.90;28.25;98645.03;5054686;28;965;-80
2022/12/30 10:42:49;;;;;;;;;;;;;;;20.61;28.83;98645.41;5055043;28;910;-79
2022/12/30 10:45:24;;;;;;;;;;;;;;;21.07;28.05;98635.50;5039702;28;755;-80
2022/12/30 10:48:08;;;;;;;;;;;;;;;21.23;27.99;98630.00;5054403;28;751;-79
2022/12/30 10:50:39;;;;;;;;;;;;;;;21.21;28.19;98640.16;5038208;28;829;-80
2022/12/30 10:53:06;;;;;;;;;;;;;;;20.81;28.81;98631.41;5054483;28;912;-79
2022/12/30 10:55:32;;;;;;;;;;;;;;;20.78;28.68;98633.09;5058969;28;1906;-80
2022/12/30 10:58:10;;;;;;;;;;;;;;;20.83;28.40;98614.84;5057717;28;973;-80
2022/12/30 11:00:40;;;;;;;;;;;;;;;21.24;27.96;98625.13;5058105;28;938;-79
2022/12/30 11:03:18;;;;;;;;;;;;;;;21.37;27.52;98634.69;5036889;28;992;-80
2022/12/30 11:05:43;;;;;;;;;;;;;;;21.20;28.00;98622.38;5020726;28;1258;-80
2022/12/30 11:08:19;;;;;;;;;;;;;;;20.89;28.28;98627.28;5036444;28;920;-80
2022/12/30 11:10:56;;;;;;;;;;;;;;;20.69;28.65;98623.50;5037347;28;984;-80
2022/12/30 11:16:06;;;;;;;;;;;;;;;21.02;28.24;98633.94;5037188;28;1114;-79
2022/12/30 11:18:31;;;;;;;;;;;;;;;21.26;27.76;98623.50;5020021;28;1110;-80
2022/12/30 11:20:59;;;;;;;;;;;;;;;21.14;28.13;98620.44;5020187;28;988;-80
2022/12/30 11:23:25;;;;;;;;;;;;;;;21.09;27.96;98618.91;5035726;28;1371;-79
2022/12/30 11:25:51;;;;;;;;;;;;;;;20.84;28.42;98624.13;5037485;28;952;-80
2022/12/30 11:28:43;;;;;;;;;;;;;;;20.64;28.86;98616.28;5019615;28;913;-79
2022/12/30 11:31:09;;;;;;;;;;;;;;;21.26;28.09;98623.50;4997651;28;957;-80
2022/12/30 11:33:38;;;;;;;;;;;;;;;21.28;27.73;98612.53;4986341;28;1969;-78
2022/12/30 11:36:22;;;;;;;;;;;;;;;21.18;27.95;98607.84;5017004;28;916;-78
2022/12/30 11:38:50;;;;;;;;;;;;;;;21.06;28.27;98608.44;5016488;28;1015;-78
2022/12/30 11:41:16;;;;;;;;;;;;;;;20.62;29.05;98601.75;5017450;28;1053;-77
2022/12/30 11:43:41;;;;;;;;;;;;;;;20.58;29.22;98595.38;5016053;28;1010;-77
2022/12/30 11:46:07;;;;;;;;;;;;;;;21.00;28.49;98604.50;5016915;28;1113;-78
2022/12/30 11:48:36;;;;;;;;;;;;;;;21.30;28.04;98601.63;4999267;28;1048;-78
2022/12/30 11:51:03;;;;;;;;;;;;;;;21.38;27.88;98604.34;5000940;28;956;-78
2022/12/30 11:53:30;;;;;;;;;;;;;;;20.84;28.71;98590.19;4999498;28;1981;-78
2022/12/30 11:55:56;;;;;;;;;;;;;;;20.84;28.51;98601.50;5016976;28;973;-77
2022/12/30 11:58:21;;;;;;;;;;;;;;;21.26;28.16;98598.03;4999455;28;949;-78
2022/12/30 12:00:48;;;;;;;;;;;;;;;21.38;27.71;98590.19;5016364;28;1070;-78
2022/12/30 12:03:14;;;;;;;;;;;;;;;21.45;27.57;98601.38;4999569;28;1079;-78
2022/12/30 12:05:41;;;;;;;;;;;;;;;21.00;28.12;98601.66;5000342;28;946;-78
2022/12/30 12:08:10;;;;;;;;;;;;;;;20.70;28.70;98591.97;5040371;28;1021;-78
2022/12/30 12:10:36;;;;;;;;;;;;;;;20.55;29.01;98596.22;5058132;28;986;-78
2022/12/30 12:13:01;;;;;;;;;;;;;;;20.93;28.76;98593.25;5057827;28;997;-78
2022/12/30 12:15:30;;;;;;;;;;;;;;;21.24;27.93;98589.16;5057577;28;1902;-78
2022/12/30 12:18:00;;;;;;;;;;;;;;;21.21;28.00;98598.50;5057480;28;918;-78
2022/12/30 12:21:05;;;;;;;;;;;;;;;21.01;28.20;98583.44;5056993;28;882;-78
2022/12/30 12:23:39;;;;;;;;;;;;;;;20.79;28.69;98588.63;5034756;28;952;-77
2022/12/30 12:26:18;;;;;;;;;;;;;;;20.67;28.72;98592.00;5035880;28;1084;-78
2022/12/30 12:28:44;;;;;;;;;;;;;;;21.36;27.81;98595.50;5034700;28;989;-77
2022/12/30 12:31:21;;;;;;;;;;;;;;;21.09;28.16;98590.63;5035799;28;1083;-78
2022/12/30 12:33:58;;;;;;;;;;;;;;;21.32;27.86;98587.84;5034113;28;1972;-77
2022/12/30 12:36:28;;;;;;;;;;;;;;;21.10;27.97;98580.91;5035759;28;1215;-78
2022/12/30 12:39:05;;;;;;;;;;;;;;;20.77;28.56;98586.19;5017877;28;1226;-78
2022/12/30 12:41:33;;;;;;;;;;;;;;;20.83;28.58;98583.72;5035669;28;1043;-77
2022/12/30 12:44:10;;;;;;;;;;;;;;;21.05;28.44;98585.00;5034799;28;1006;-77
2022/12/30 12:46:38;;;;;;;;;;;;;;;21.34;27.94;98581.75;5035910;28;1052;-77
2022/12/30 12:49:09;;;;;;;;;;;;;;;21.58;27.42;98600.34;5035119;28;903;-78
2022/12/30 12:51:35;;;;;;;;;;;;;;;20.89;28.47;98584.06;5035774;28;1037;-77
2022/12/30 12:54:00;;;;;;;;;;;;;;;20.81;28.61;98584.13;5043373;28;1973;-77
2022/12/30 12:56:32;;;;;;;;;;;;;;;20.68;28.73;98587.97;5057448;28;933;-77
2022/12/30 12:59:20;;;;;;;;;;;;;;;21.03;28.44;98593.09;5056553;28;950;-78
2022/12/30 13:01:55;;;;;;;;;;;;;;;21.03;28.32;98589.47;5056732;28;1460;-77
2022/12/30 13:04:27;;;;;;;;;;;;;;;21.22;28.00;98588.78;5056732;28;1026;-77
2022/12/30 13:06:52;;;;;;;;;;;;;;;21.25;27.86;98590.75;5058281;28;981;-77
2022/12/30 13:09:23;;;;;;;;;;;;;;;21.00;28.24;98598.84;5056632;28;984;-78
2022/12/30 13:11:52;;;;;;;;;;;;;;;20.67;28.78;98592.81;5055760;28;1027;-78
2022/12/30 13:14:21;;;;;;;;;;;;;;;20.93;28.48;98591.22;5055919;28;1895;-77
2022/12/30 13:16:48;;;;;;;;;;;;;;;20.99;28.60;98602.91;5056042;28;1115;-77
2022/12/30 13:19:13;;;;;;;;;;;;;;;21.34;27.94;98590.22;5055472;28;1126;-78
2022/12/30 13:21:39;;;;;;;;;;;;;;;21.40;27.85;98599.03;5056259;28;951;-77
2022/12/30 13:24:05;;;;;;;;;;;;;;;21.31;28.01;98611.72;5057067;28;1060;-77
2022/12/30 13:26:30;;;;;;;;;;;;;;;21.13;28.13;98608.31;5056036;28;1181;-77
2022/12/30 13:28:56;;;;;;;;;;;;;;;20.95;28.46;98602.94;5055159;28;1279;-77
2022/12/30 13:31:27;;;;;;;;;;;;;;;20.87;28.78;98607.09;5057442;28;933;-77
2022/12/30 13:33:59;;;;;;;;;;;;;;;20.90;28.67;98599.78;5056139;28;1991;-77
2022/12/30 13:36:44;;;;;;;;;;;;;;;21.25;28.08;98613.41;5055985;28;1071;-77
2022/12/30 13:39:28;;;;;;;;;;;;;;;21.27;28.12;98601.66;5034441;28;1208;-78
2022/12/30 13:42:12;;;;;;;;;;;;;;;21.14;28.31;98604.28;5035039;28;978;-77
2022/12/30 13:44:39;;;;;;;;;;;;;;;20.66;28.88;98608.19;5037179;28;1157;-77
2022/12/30 13:47:05;;;;;;;;;;;;;;;20.93;28.57;98615.88;5038841;28;1020;-77
2022/12/30 13:49:31;;;;;;;;;;;;;;;21.16;28.07;98615.97;5037999;28;1107;-77
2022/12/30 13:51:56;;;;;;;;;;;;;;;21.29;28.02;98614.13;5022007;28;987;-77
2022/12/30 13:54:22;;;;;;;;;;;;;;;21.03;28.30;98621.41;5037942;28;1949;-77
2022/12/30 13:56:49;;;;;;;;;;;;;;;21.01;28.26;98628.72;5038583;28;953;-77
2022/12/30 13:59:24;;;;;;;;;;;;;;;20.85;28.53;98625.72;5037704;28;1155;-77
2022/12/30 14:01:49;;;;;;;;;;;;;;;20.95;28.58;98624.78;5038220;28;1068;-77